Time;durP1;ratioP1;P1;durP2;ratioP2;P2;SDS_P1;SDS_P2;PMS_P1;PMS_P2;Temp;Humidity;BMP_temperature;BMP_pressure;BME280_temperature;BME280_humidity;BME280_pressure;Samples;Min_cycle;Max_cycle;Signal;HPM_P1;HPM_P2
2023/09/02 00:01:04;;;;;;;7.25;2.03;;;;;;;;;;5032792;28;20032;-73
2023/09/02 00:03:30;;;;;;;6.95;2.42;;;;;;;;;;5029323;28;20043;-73
2023/09/02 00:05:56;;;;;;;7.40;2.10;;;;;;;;;;5030827;28;20634;-73
2023/09/02 00:08:23;;;;;;;7.30;2.13;;;;;;;;;;5027578;28;20435;-72
2023/09/02 00:10:49;;;;;;;7.55;1.85;;;;;;;;;;5038506;28;20036;-73
2023/09/02 00:13:15;;;;;;;9.07;2.00;;;;;;;;;;5036572;28;20324;-73
2023/09/02 00:15:41;;;;;;;7.00;2.08;;;;;;;;;;5027422;28;20531;-73
2023/09/02 00:18:07;;;;;;;6.88;1.80;;;;;;;;;;5035622;28;20313;-73
2023/09/02 00:20:34;;;;;;;5.30;1.88;;;;;;;;;;5026355;28;20249;-72
2023/09/02 00:23:00;;;;;;;6.28;1.85;;;;;;;;;;5035653;28;20466;-68
2023/09/02 00:25:26;;;;;;;5.07;1.70;;;;;;;;;;5028217;28;20510;-67
2023/09/02 00:27:53;;;;;;;7.75;1.90;;;;;;;;;;5038352;28;20028;-67
2023/09/02 00:30:20;;;;;;;6.45;1.70;;;;;;;;;;5032804;28;20052;-67
2023/09/02 00:32:46;;;;;;;6.82;1.80;;;;;;;;;;5027782;28;20364;-68
2023/09/02 00:35:12;;;;;;;8.07;1.80;;;;;;;;;;5036716;28;20036;-68
2023/09/02 00:37:38;;;;;;;7.15;2.00;;;;;;;;;;5033473;28;20037;-68
2023/09/02 00:40:05;;;;;;;5.55;1.77;;;;;;;;;;5034348;28;20502;-67
2023/09/02 00:42:33;;;;;;;6.40;1.85;;;;;;;;;;5031593;28;20032;-67
2023/09/02 00:44:59;;;;;;;6.13;1.70;;;;;;;;;;5030548;28;20506;-67
2023/09/02 00:47:25;;;;;;;6.25;1.92;;;;;;;;;;5029601;28;20025;-68
2023/09/02 00:49:52;;;;;;;6.93;2.05;;;;;;;;;;5034459;28;20317;-70
2023/09/02 00:52:19;;;;;;;5.03;1.50;;;;;;;;;;5036787;28;20159;-67
2023/09/02 00:54:45;;;;;;;5.68;1.83;;;;;;;;;;5033850;28;20040;-68
2023/09/02 00:57:12;;;;;;;7.05;1.90;;;;;;;;;;5032440;28;20117;-68
2023/09/02 00:59:39;;;;;;;7.07;2.15;;;;;;;;;;5031953;28;20033;-68
2023/09/02 01:02:05;;;;;;;6.63;2.00;;;;;;;;;;5035347;28;20305;-67
2023/09/02 01:04:32;;;;;;;6.38;2.10;;;;;;;;;;5032999;28;20137;-68
2023/09/02 01:06:59;;;;;;;7.47;2.10;;;;;;;;;;5031308;28;20033;-70
2023/09/02 01:09:26;;;;;;;6.40;1.88;;;;;;;;;;5027945;28;20040;-68
2023/09/02 01:11:52;;;;;;;6.45;1.85;;;;;;;;;;5029135;28;20114;-68
2023/09/02 01:14:18;;;;;;;7.22;1.65;;;;;;;;;;5035320;28;20021;-67
2023/09/02 01:16:44;;;;;;;5.88;1.70;;;;;;;;;;5030911;28;20032;-68
2023/09/02 01:19:12;;;;;;;7.28;2.15;;;;;;;;;;5031061;28;20507;-68
2023/09/02 01:21:57;;;;;;;6.78;1.90;;;;;;;;;;5031404;28;20017;-68
2023/09/02 01:24:42;;;;;;;7.57;1.63;;;;;;;;;;5037111;28;20020;-67
2023/09/02 01:27:17;;;;;;;6.75;1.90;;;;;;;;;;5041044;28;20032;-68
2023/09/02 01:29:47;;;;;;;5.57;1.50;;;;;;;;;;5031136;28;20063;-68
2023/09/02 01:32:14;;;;;;;5.65;1.88;;;;;;;;;;5032384;28;20024;-67
2023/09/02 01:34:41;;;;;;;7.03;1.60;;;;;;;;;;5030460;28;20085;-67
2023/09/02 01:37:08;;;;;;;7.53;1.50;;;;;;;;;;5039510;28;20036;-68
2023/09/02 01:39:37;;;;;;;7.03;1.70;;;;;;;;;;5033522;28;20402;-68
2023/09/02 01:42:05;;;;;;;6.97;1.50;;;;;;;;;;5037262;28;20365;-68
2023/09/02 01:44:32;;;;;;;6.70;1.60;;;;;;;;;;5034339;28;20231;-68
2023/09/02 01:47:01;;;;;;;9.82;1.98;;;;;;;;;;5039167;28;20028;-68
2023/09/02 01:49:28;;;;;;;10.15;2.00;;;;;;;;;;5038747;28;20404;-67
2023/09/02 01:51:54;;;;;;;4.95;1.48;;;;;;;;;;5039519;28;20036;-67
2023/09/02 01:54:20;;;;;;;7.85;1.80;;;;;;;;;;5041327;28;20133;-67
2023/09/02 01:56:47;;;;;;;6.50;1.70;;;;;;;;;;5037406;28;20036;-68
2023/09/02 01:59:13;;;;;;;7.50;2.03;;;;;;;;;;5037793;28;20079;-67
2023/09/02 02:01:39;;;;;;;7.25;1.80;;;;;;;;;;5032753;28;20028;-67
2023/09/02 02:04:09;;;;;;;7.35;1.80;;;;;;;;;;5044326;28;20020;-67
2023/09/02 02:06:36;;;;;;;7.07;2.10;;;;;;;;;;5033256;28;20531;-67
2023/09/02 02:09:05;;;;;;;7.07;1.67;;;;;;;;;;5033745;28;20033;-67
2023/09/02 02:11:35;;;;;;;6.82;1.58;;;;;;;;;;5028810;28;20464;-68
2023/09/02 02:14:02;;;;;;;6.65;1.65;;;;;;;;;;5033391;28;20032;-67
2023/09/02 02:16:29;;;;;;;8.48;1.83;;;;;;;;;;5029502;28;20071;-68
2023/09/02 02:18:55;;;;;;;6.03;1.80;;;;;;;;;;5037811;28;20040;-67
2023/09/02 02:21:21;;;;;;;7.35;1.77;;;;;;;;;;5034026;28;20796;-67
2023/09/02 02:23:47;;;;;;;8.18;1.88;;;;;;;;;;5035592;28;20040;-67
2023/09/02 02:26:15;;;;;;;8.07;1.67;;;;;;;;;;5037153;28;20136;-67
2023/09/02 02:28:42;;;;;;;8.07;1.70;;;;;;;;;;5032590;28;20032;-67
2023/09/02 02:31:08;;;;;;;7.90;1.80;;;;;;;;;;5030243;28;20036;-67
2023/09/02 02:33:34;;;;;;;8.30;2.00;;;;;;;;;;5032094;28;20111;-67
2023/09/02 02:36:00;;;;;;;9.52;1.75;;;;;;;;;;5035808;28;20032;-67
2023/09/02 02:38:26;;;;;;;6.88;1.55;;;;;;;;;;5036377;28;20037;-67
2023/09/02 02:40:52;;;;;;;7.70;1.63;;;;;;;;;;5033161;28;20036;-67
2023/09/02 02:43:24;;;;;;;6.50;1.70;;;;;;;;;;5031964;28;20145;-67
2023/09/02 02:45:50;;;;;;;7.30;1.63;;;;;;;;;;5036261;28;20045;-68
2023/09/02 02:48:16;;;;;;;6.80;1.80;;;;;;;;;;5036857;28;20040;-67
2023/09/02 02:50:42;;;;;;;9.13;1.98;;;;;;;;;;5033898;28;21477;-67
2023/09/02 02:53:08;;;;;;;7.68;2.00;;;;;;;;;;5044143;28;20033;-67
2023/09/02 02:55:35;;;;;;;9.85;2.20;;;;;;;;;;5036468;28;20101;-67
2023/09/02 02:58:01;;;;;;;6.80;1.85;;;;;;;;;;5037465;28;20032;-67
2023/09/02 03:00:27;;;;;;;7.50;2.25;;;;;;;;;;5035973;28;20079;-67
2023/09/02 03:02:53;;;;;;;9.45;1.98;;;;;;;;;;5033318;28;20088;-66
2023/09/02 03:05:20;;;;;;;6.57;1.63;;;;;;;;;;5038476;28;20482;-67
2023/09/02 03:07:47;;;;;;;8.35;2.03;;;;;;;;;;5039041;28;20032;-67
2023/09/02 03:10:13;;;;;;;5.88;1.60;;;;;;;;;;5038261;28;20141;-67
2023/09/02 03:12:39;;;;;;;8.45;1.85;;;;;;;;;;5034561;28;20234;-66
2023/09/02 03:15:06;;;;;;;8.98;1.80;;;;;;;;;;5035529;28;20895;-67
2023/09/02 03:17:32;;;;;;;7.93;1.77;;;;;;;;;;5036614;28;20036;-66
2023/09/02 03:19:58;;;;;;;9.93;1.98;;;;;;;;;;5037014;28;20016;-68
2023/09/02 03:22:24;;;;;;;6.10;1.67;;;;;;;;;;5041726;28;20028;-67
2023/09/02 03:24:54;;;;;;;9.30;2.00;;;;;;;;;;5038647;28;20021;-67
2023/09/02 03:27:21;;;;;;;8.50;2.13;;;;;;;;;;5038482;28;20146;-67
2023/09/02 03:29:50;;;;;;;10.05;2.20;;;;;;;;;;5035738;28;20029;-66
2023/09/02 03:32:17;;;;;;;9.93;2.20;;;;;;;;;;5042858;28;20201;-66
2023/09/02 03:34:43;;;;;;;5.60;1.50;;;;;;;;;;5033585;28;20037;-67
2023/09/02 03:37:09;;;;;;;9.43;2.00;;;;;;;;;;5040743;28;20037;-66
2023/09/02 03:39:36;;;;;;;5.95;1.80;;;;;;;;;;5034354;28;20295;-66
2023/09/02 03:42:02;;;;;;;8.45;1.73;;;;;;;;;;5039234;28;20028;-66
2023/09/02 03:44:29;;;;;;;8.65;1.80;;;;;;;;;;5035981;28;20057;-69
2023/09/02 03:46:55;;;;;;;10.98;1.90;;;;;;;;;;5038142;28;20137;-68
2023/09/02 03:49:21;;;;;;;8.90;1.88;;;;;;;;;;5041091;28;20025;-68
2023/09/02 03:51:47;;;;;;;6.78;1.80;;;;;;;;;;5038191;28;20444;-68
2023/09/02 03:54:13;;;;;;;7.65;1.85;;;;;;;;;;5040361;28;20036;-68
2023/09/02 03:56:41;;;;;;;8.55;1.75;;;;;;;;;;5035432;28;20627;-68
2023/09/02 03:59:07;;;;;;;9.32;1.98;;;;;;;;;;5038446;28;20040;-68
2023/09/02 04:01:34;;;;;;;6.80;1.90;;;;;;;;;;5036861;28;20021;-68
2023/09/02 04:04:00;;;;;;;7.38;1.98;;;;;;;;;;5041810;28;20108;-68
2023/09/02 04:06:26;;;;;;;7.78;1.83;;;;;;;;;;5039225;28;20035;-68
2023/09/02 04:08:52;;;;;;;7.88;1.95;;;;;;;;;;5039153;28;20065;-68
2023/09/02 04:11:19;;;;;;;8.00;1.98;;;;;;;;;;5036658;28;20521;-68
2023/09/02 04:13:45;;;;;;;7.30;1.75;;;;;;;;;;5039190;28;20481;-68
2023/09/02 04:16:11;;;;;;;8.00;1.75;;;;;;;;;;5040169;28;20332;-68
2023/09/02 04:18:37;;;;;;;6.70;1.80;;;;;;;;;;5040525;28;20429;-68
2023/09/02 04:21:04;;;;;;;9.13;1.75;;;;;;;;;;5042277;28;20036;-68
2023/09/02 04:23:31;;;;;;;8.35;1.80;;;;;;;;;;5032588;28;20864;-68
2023/09/02 04:25:57;;;;;;;6.85;1.77;;;;;;;;;;5032499;28;20071;-67
2023/09/02 04:28:23;;;;;;;7.68;1.80;;;;;;;;;;5035524;28;20123;-67
2023/09/02 04:30:51;;;;;;;7.60;1.80;;;;;;;;;;5039979;28;20507;-67
2023/09/02 04:33:17;;;;;;;7.45;1.95;;;;;;;;;;5040250;28;20099;-67
2023/09/02 04:35:44;;;;;;;6.82;1.75;;;;;;;;;;5038524;28;20051;-68
2023/09/02 04:38:10;;;;;;;7.10;1.80;;;;;;;;;;5037035;28;20499;-67
2023/09/02 04:40:37;;;;;;;7.25;1.83;;;;;;;;;;5034936;28;20034;-67
2023/09/02 04:43:04;;;;;;;5.68;1.70;;;;;;;;;;5038341;28;20035;-67
2023/09/02 04:45:40;;;;;;;7.70;1.83;;;;;;;;;;5041045;28;20041;-67
2023/09/02 04:48:06;;;;;;;7.60;2.08;;;;;;;;;;5042184;28;20333;-67
2023/09/02 04:50:33;;;;;;;8.10;2.15;;;;;;;;;;5036016;28;20048;-67
2023/09/02 04:53:00;;;;;;;7.60;1.85;;;;;;;;;;5040178;28;20820;-67
2023/09/02 04:55:26;;;;;;;7.13;1.65;;;;;;;;;;5033119;28;20672;-67
2023/09/02 04:57:53;;;;;;;6.00;1.42;;;;;;;;;;5044700;28;20059;-67
2023/09/02 05:00:20;;;;;;;12.63;2.00;;;;;;;;;;5034139;28;20570;-67
2023/09/02 05:02:46;;;;;;;8.13;1.70;;;;;;;;;;5031569;28;20041;-68
2023/09/02 05:05:17;;;;;;;7.00;1.70;;;;;;;;;;5034452;28;20030;-68
2023/09/02 05:07:43;;;;;;;6.50;1.80;;;;;;;;;;5036030;28;20029;-68
2023/09/02 05:10:09;;;;;;;7.72;1.95;;;;;;;;;;5037336;28;20140;-68
2023/09/02 05:12:36;;;;;;;7.38;1.58;;;;;;;;;;5039350;28;20114;-68
2023/09/02 05:15:03;;;;;;;8.73;2.30;;;;;;;;;;5040621;28;20047;-68
2023/09/02 05:17:30;;;;;;;8.02;1.98;;;;;;;;;;5037605;28;20271;-68
2023/09/02 05:19:57;;;;;;;5.68;1.60;;;;;;;;;;5043304;28;20348;-68
2023/09/02 05:22:23;;;;;;;6.28;2.08;;;;;;;;;;5043289;28;20020;-68
2023/09/02 05:24:49;;;;;;;7.80;1.60;;;;;;;;;;5038130;28;20064;-68
2023/09/02 05:27:15;;;;;;;9.05;1.98;;;;;;;;;;5035184;28;20070;-68
2023/09/02 05:29:41;;;;;;;6.35;2.00;;;;;;;;;;5031693;28;20076;-68
2023/09/02 05:32:10;;;;;;;7.88;2.13;;;;;;;;;;5040803;28;20115;-68
2023/09/02 05:34:37;;;;;;;10.60;2.30;;;;;;;;;;5036026;28;20556;-67
2023/09/02 05:37:03;;;;;;;10.45;2.20;;;;;;;;;;5043572;28;20036;-67
2023/09/02 05:39:29;;;;;;;8.70;2.00;;;;;;;;;;5036908;28;20396;-67
2023/09/02 05:41:55;;;;;;;8.93;2.15;;;;;;;;;;5037320;28;20116;-67
2023/09/02 05:44:21;;;;;;;8.35;2.38;;;;;;;;;;5043018;28;20242;-67
2023/09/02 05:46:48;;;;;;;8.90;2.05;;;;;;;;;;5040991;28;20879;-67
2023/09/02 05:49:14;;;;;;;9.27;2.05;;;;;;;;;;5043064;28;20032;-67
2023/09/02 05:51:40;;;;;;;7.80;2.20;;;;;;;;;;5036942;28;20032;-67
2023/09/02 05:54:09;;;;;;;8.50;1.90;;;;;;;;;;5035871;28;20515;-68
2023/09/02 05:56:35;;;;;;;8.88;1.90;;;;;;;;;;5036640;28;20024;-68
2023/09/02 05:59:02;;;;;;;6.47;1.67;;;;;;;;;;5037625;28;20047;-67
2023/09/02 06:01:28;;;;;;;7.75;1.90;;;;;;;;;;5032837;28;20033;-67
2023/09/02 06:03:54;;;;;;;10.00;2.25;;;;;;;;;;5036010;28;20035;-68
2023/09/02 06:06:21;;;;;;;6.15;1.80;;;;;;;;;;5034618;28;20506;-67
2023/09/02 06:08:48;;;;;;;7.45;2.00;;;;;;;;;;5031823;28;20041;-68
2023/09/02 06:11:14;;;;;;;11.60;2.30;;;;;;;;;;5030887;28;20796;-67
2023/09/02 06:13:40;;;;;;;7.90;1.92;;;;;;;;;;5034213;28;20025;-67
2023/09/02 06:16:06;;;;;;;9.07;1.83;;;;;;;;;;5031472;28;20781;-68
2023/09/02 06:18:33;;;;;;;8.63;2.08;;;;;;;;;;5033626;28;20056;-67
2023/09/02 06:20:59;;;;;;;8.35;2.20;;;;;;;;;;5039494;28;20105;-67
2023/09/02 06:23:26;;;;;;;10.50;2.20;;;;;;;;;;5034226;28;20043;-68
2023/09/02 06:26:02;;;;;;;9.00;2.20;;;;;;;;;;5032231;28;20063;-68
2023/09/02 06:28:28;;;;;;;9.75;2.25;;;;;;;;;;5027775;28;20263;-67
2023/09/02 06:30:55;;;;;;;7.90;2.38;;;;;;;;;;5039402;28;20584;-67
2023/09/02 06:33:22;;;;;;;8.95;2.15;;;;;;;;;;5040792;28;20044;-68
2023/09/02 06:35:51;;;;;;;9.77;2.17;;;;;;;;;;5035054;28;20029;-68
2023/09/02 06:38:18;;;;;;;10.90;2.20;;;;;;;;;;5033245;28;20120;-67
2023/09/02 06:40:44;;;;;;;10.05;2.30;;;;;;;;;;5035430;28;20383;-67
2023/09/02 06:43:11;;;;;;;9.02;2.15;;;;;;;;;;5043451;28;20764;-69
2023/09/02 06:45:37;;;;;;;10.43;2.40;;;;;;;;;;5038644;28;20554;-67
2023/09/02 06:48:03;;;;;;;10.38;2.45;;;;;;;;;;5036182;28;20118;-67
2023/09/02 06:50:29;;;;;;;8.23;2.10;;;;;;;;;;5039084;28;20137;-67
2023/09/02 06:52:55;;;;;;;10.30;2.40;;;;;;;;;;5040288;28;20205;-67
2023/09/02 06:55:22;;;;;;;10.75;2.40;;;;;;;;;;5042034;28;20580;-67
2023/09/02 06:57:48;;;;;;;8.95;2.20;;;;;;;;;;5039392;28;20146;-67
2023/09/02 07:00:14;;;;;;;7.68;1.88;;;;;;;;;;5036625;28;21090;-66
2023/09/02 07:02:42;;;;;;;8.73;2.38;;;;;;;;;;5035283;28;20025;-67
2023/09/02 07:05:08;;;;;;;8.98;2.10;;;;;;;;;;5037389;28;20032;-67
2023/09/02 07:07:36;;;;;;;7.13;2.00;;;;;;;;;;5030926;28;20024;-68
2023/09/02 07:10:03;;;;;;;9.43;2.08;;;;;;;;;;5036970;28;20220;-67
2023/09/02 07:12:29;;;;;;;8.63;2.05;;;;;;;;;;5029608;28;20036;-67
2023/09/02 07:14:55;;;;;;;8.55;2.08;;;;;;;;;;5036802;28;20045;-67
2023/09/02 07:17:22;;;;;;;8.30;2.15;;;;;;;;;;5033522;28;20029;-67
2023/09/02 07:19:48;;;;;;;10.52;2.38;;;;;;;;;;5037461;28;20064;-67
2023/09/02 07:22:14;;;;;;;9.27;2.25;;;;;;;;;;5032584;28;20644;-67
2023/09/02 07:24:40;;;;;;;9.15;2.33;;;;;;;;;;5028881;28;20036;-67
2023/09/02 07:27:06;;;;;;;10.10;2.33;;;;;;;;;;5029887;28;20029;-67
2023/09/02 07:29:32;;;;;;;9.10;2.20;;;;;;;;;;5036567;28;20028;-67
2023/09/02 07:31:58;;;;;;;10.27;2.65;;;;;;;;;;5036340;28;20021;-67
2023/09/02 07:34:25;;;;;;;10.57;2.63;;;;;;;;;;5036990;28;20104;-67
2023/09/02 07:36:51;;;;;;;8.88;2.38;;;;;;;;;;5031415;28;20376;-67
2023/09/02 07:39:17;;;;;;;10.15;2.60;;;;;;;;;;5034657;28;20102;-67
2023/09/02 07:41:43;;;;;;;9.13;2.35;;;;;;;;;;5028907;28;20036;-67
2023/09/02 07:44:10;;;;;;;10.30;2.42;;;;;;;;;;5037754;28;20040;-67
2023/09/02 07:46:36;;;;;;;11.32;2.20;;;;;;;;;;5032795;28;20118;-67
2023/09/02 07:49:02;;;;;;;10.27;2.20;;;;;;;;;;5036879;28;20033;-67
2023/09/02 07:51:28;;;;;;;10.02;2.30;;;;;;;;;;5032540;28;20029;-67
2023/09/02 07:53:54;;;;;;;10.38;2.35;;;;;;;;;;5041886;28;20069;-67
2023/09/02 07:56:22;;;;;;;9.68;2.42;;;;;;;;;;5036291;28;21074;-67
2023/09/02 07:58:50;;;;;;;9.75;2.35;;;;;;;;;;5040070;28;20128;-67
2023/09/02 08:01:17;;;;;;;11.50;2.78;;;;;;;;;;5037598;28;20148;-67
2023/09/02 08:03:43;;;;;;;9.80;2.40;;;;;;;;;;5033102;28;20071;-67
2023/09/02 08:06:09;;;;;;;10.35;2.45;;;;;;;;;;5044174;28;20036;-67
2023/09/02 08:08:35;;;;;;;9.63;2.13;;;;;;;;;;5034298;28;20032;-67
2023/09/02 08:11:02;;;;;;;12.15;2.45;;;;;;;;;;5035485;28;20048;-68
2023/09/02 08:13:28;;;;;;;7.88;2.20;;;;;;;;;;5032693;28;20312;-67
2023/09/02 08:15:54;;;;;;;12.45;2.42;;;;;;;;;;5041134;28;20059;-67
2023/09/02 08:18:21;;;;;;;9.32;2.38;;;;;;;;;;5035723;28;20151;-67
2023/09/02 08:20:47;;;;;;;9.82;2.47;;;;;;;;;;5031285;28;20087;-67
2023/09/02 08:23:13;;;;;;;8.63;2.05;;;;;;;;;;5040128;28;20036;-67
2023/09/02 08:25:39;;;;;;;9.45;2.25;;;;;;;;;;5035655;28;20035;-67
2023/09/02 08:28:05;;;;;;;8.27;2.15;;;;;;;;;;5036401;28;20562;-67
2023/09/02 08:30:32;;;;;;;8.32;2.00;;;;;;;;;;5039177;28;20510;-67
2023/09/02 08:32:58;;;;;;;12.07;2.72;;;;;;;;;;5040452;28;20025;-68
2023/09/02 08:35:24;;;;;;;10.57;2.47;;;;;;;;;;5032484;28;20029;-67
2023/09/02 08:37:51;;;;;;;7.40;2.03;;;;;;;;;;5036286;28;20503;-67
2023/09/02 08:40:17;;;;;;;9.55;2.60;;;;;;;;;;5036334;28;20542;-68
2023/09/02 08:42:44;;;;;;;9.73;2.45;;;;;;;;;;5033207;28;20020;-68
2023/09/02 08:45:11;;;;;;;10.90;2.13;;;;;;;;;;5033066;28;20055;-67
2023/09/02 08:47:41;;;;;;;8.88;2.15;;;;;;;;;;5035744;28;20064;-69
2023/09/02 08:50:08;;;;;;;12.02;2.65;;;;;;;;;;5039225;28;20047;-69
2023/09/02 08:52:34;;;;;;;9.48;2.35;;;;;;;;;;5032062;28;20086;-69
2023/09/02 08:55:01;;;;;;;7.10;1.80;;;;;;;;;;5037228;28;20040;-69
2023/09/02 08:57:27;;;;;;;10.95;2.38;;;;;;;;;;5036536;28;20304;-69
2023/09/02 08:59:54;;;;;;;9.57;2.45;;;;;;;;;;5040924;28;20244;-69
2023/09/02 09:02:20;;;;;;;7.55;2.13;;;;;;;;;;5041266;28;20155;-67
2023/09/02 09:04:52;;;;;;;8.98;2.13;;;;;;;;;;5042998;28;20500;-67
2023/09/02 09:07:18;;;;;;;10.93;2.35;;;;;;;;;;5034661;28;20040;-67
2023/09/02 09:09:46;;;;;;;8.52;2.05;;;;;;;;;;5036437;28;20369;-68
2023/09/02 09:12:13;;;;;;;8.50;2.40;;;;;;;;;;5041156;28;20326;-68
2023/09/02 09:14:42;;;;;;;8.90;2.03;;;;;;;;;;5035494;28;20047;-68
2023/09/02 09:17:08;;;;;;;10.50;2.50;;;;;;;;;;5043156;28;20037;-68
2023/09/02 09:19:34;;;;;;;7.70;1.90;;;;;;;;;;5035385;28;20116;-67
2023/09/02 09:22:03;;;;;;;12.27;2.15;;;;;;;;;;5034020;28;20368;-67
2023/09/02 09:24:29;;;;;;;9.02;2.13;;;;;;;;;;5033846;28;20416;-67
2023/09/02 09:26:58;;;;;;;8.88;2.28;;;;;;;;;;5036261;28;20040;-68
2023/09/02 09:29:24;;;;;;;10.40;2.30;;;;;;;;;;5032094;28;20020;-67
2023/09/02 09:32:06;;;;;;;8.50;2.47;;;;;;;;;;5046987;28;20374;-68
2023/09/02 09:34:37;;;;;;;8.95;2.28;;;;;;;;;;5039108;28;20303;-68
2023/09/02 09:37:03;;;;;;;12.90;2.67;;;;;;;;;;5034261;28;20029;-68
2023/09/02 09:40:01;;;;;;;12.15;3.25;;;;;;;;;;5038319;28;20544;-68
2023/09/02 09:42:34;;;;;;;9.45;2.72;;;;;;;;;;5033963;28;20032;-69
2023/09/02 09:45:02;;;;;;;10.43;2.80;;;;;;;;;;5039236;28;20053;-69
2023/09/02 09:47:29;;;;;;;10.95;2.40;;;;;;;;;;5033765;28;21220;-68
2023/09/02 09:50:10;;;;;;;8.13;2.17;;;;;;;;;;5036847;28;20325;-68
2023/09/02 09:52:38;;;;;;;6.13;1.80;;;;;;;;;;5036654;28;20564;-68
2023/09/02 09:55:04;;;;;;;8.52;2.20;;;;;;;;;;5039818;28;20025;-68
2023/09/02 09:57:30;;;;;;;9.43;2.15;;;;;;;;;;5039170;28;20056;-69
2023/09/02 09:59:57;;;;;;;10.18;2.55;;;;;;;;;;5039037;28;20036;-68
2023/09/02 10:02:23;;;;;;;8.55;2.38;;;;;;;;;;5037294;28;20044;-68
2023/09/02 10:04:51;;;;;;;9.07;2.60;;;;;;;;;;5039680;28;20136;-68
2023/09/02 10:07:20;;;;;;;10.45;2.30;;;;;;;;;;5039841;28;20453;-69
2023/09/02 10:09:46;;;;;;;10.35;2.20;;;;;;;;;;5034713;28;20025;-68
2023/09/02 10:12:13;;;;;;;8.68;2.47;;;;;;;;;;5040180;28;20044;-68
2023/09/02 10:14:41;;;;;;;9.43;2.30;;;;;;;;;;5036756;28;20044;-68
2023/09/02 10:17:07;;;;;;;9.68;2.80;;;;;;;;;;5040021;28;20254;-69
2023/09/02 10:19:36;;;;;;;8.40;2.53;;;;;;;;;;5036686;28;20024;-67
2023/09/02 10:22:03;;;;;;;8.13;2.30;;;;;;;;;;5037449;28;20047;-67
2023/09/02 10:24:32;;;;;;;7.72;2.22;;;;;;;;;;5034372;28;20371;-69
2023/09/02 10:27:00;;;;;;;9.63;2.40;;;;;;;;;;5031049;28;20060;-68
2023/09/02 10:29:29;;;;;;;8.18;2.30;;;;;;;;;;5034170;28;20105;-69
2023/09/02 10:32:00;;;;;;;7.88;2.15;;;;;;;;;;5032439;28;20646;-68
2023/09/02 10:34:27;;;;;;;10.65;2.40;;;;;;;;;;5032791;28;20119;-68
2023/09/02 10:36:57;;;;;;;9.88;2.83;;;;;;;;;;5036643;28;20285;-68
2023/09/02 10:39:44;;;;;;;8.75;2.47;;;;;;;;;;5036015;28;20067;-68
2023/09/02 10:42:10;;;;;;;9.50;2.88;;;;;;;;;;5031362;28;20040;-69
2023/09/02 10:44:37;;;;;;;13.80;2.72;;;;;;;;;;5033652;28;20486;-68
2023/09/02 10:47:03;;;;;;;8.52;2.78;;;;;;;;;;5034109;28;20029;-68
2023/09/02 10:49:30;;;;;;;12.35;3.25;;;;;;;;;;5020136;28;20032;-68
2023/09/02 10:51:56;;;;;;;10.88;3.03;;;;;;;;;;5035003;28;20036;-68
2023/09/02 10:54:23;;;;;;;9.57;3.00;;;;;;;;;;5037342;28;20020;-68
2023/09/02 10:56:52;;;;;;;10.98;3.05;;;;;;;;;;5037916;28;20124;-68
2023/09/02 10:59:29;;;;;;;10.50;3.00;;;;;;;;;;5036197;28;20029;-68
2023/09/02 11:01:56;;;;;;;9.93;2.58;;;;;;;;;;5040811;28;20036;-68
2023/09/02 11:04:40;;;;;;;10.45;2.53;;;;;;;;;;5037546;28;20099;-70
2023/09/02 11:07:35;;;;;;;11.02;2.58;;;;;;;;;;5037353;28;20025;-68
2023/09/02 11:10:02;;;;;;;11.13;2.42;;;;;;;;;;5037401;28;20115;-68
2023/09/02 11:12:29;;;;;;;9.95;2.75;;;;;;;;;;5038326;28;20262;-68
2023/09/02 11:15:07;;;;;;;10.88;2.75;;;;;;;;;;5038195;28;20417;-68
2023/09/02 11:17:33;;;;;;;11.85;2.85;;;;;;;;;;5037854;28;20037;-67
2023/09/02 11:20:01;;;;;;;11.60;3.00;;;;;;;;;;5038540;28;20028;-67
2023/09/02 11:22:47;;;;;;;10.10;2.97;;;;;;;;;;5037532;28;20079;-68
2023/09/02 11:25:32;;;;;;;11.38;2.85;;;;;;;;;;5042224;28;20032;-67
2023/09/02 11:27:59;;;;;;;12.70;2.78;;;;;;;;;;5043465;28;20040;-67
2023/09/02 11:30:26;;;;;;;11.52;3.60;;;;;;;;;;5042345;28;20375;-67
2023/09/02 11:32:54;;;;;;;10.25;2.63;;;;;;;;;;5037694;28;20029;-67
2023/09/02 11:35:38;;;;;;;12.45;2.88;;;;;;;;;;5037231;28;20025;-68
2023/09/02 11:38:18;;;;;;;9.63;2.72;;;;;;;;;;5043470;28;20063;-68
2023/09/02 11:40:45;;;;;;;12.05;2.80;;;;;;;;;;5032969;28;20047;-68
2023/09/02 11:43:17;;;;;;;10.50;2.95;;;;;;;;;;5038612;28;20351;-67
2023/09/02 11:45:43;;;;;;;10.95;2.80;;;;;;;;;;5042085;28;20441;-68
2023/09/02 11:48:10;;;;;;;11.30;2.92;;;;;;;;;;5046267;28;20025;-68
2023/09/02 11:50:38;;;;;;;11.15;3.05;;;;;;;;;;5041333;28;20147;-68
2023/09/02 11:53:05;;;;;;;10.82;2.90;;;;;;;;;;5041257;28;20136;-68
2023/09/02 11:55:31;;;;;;;7.50;2.40;;;;;;;;;;5041688;28;20088;-68
2023/09/02 11:57:57;;;;;;;11.93;2.92;;;;;;;;;;5041474;28;20579;-68
2023/09/02 12:00:24;;;;;;;11.52;3.28;;;;;;;;;;5045612;28;20032;-68
2023/09/02 12:02:53;;;;;;;12.02;3.60;;;;;;;;;;5040851;28;20037;-68
2023/09/02 12:05:19;;;;;;;14.02;4.03;;;;;;;;;;5042556;28;20036;-68
2023/09/02 12:07:46;;;;;;;11.45;3.30;;;;;;;;;;5037778;28;20040;-68
2023/09/02 12:10:13;;;;;;;13.57;3.45;;;;;;;;;;5041615;28;20032;-68
2023/09/02 12:12:40;;;;;;;15.55;4.10;;;;;;;;;;5040329;28;20253;-68
2023/09/02 12:15:06;;;;;;;12.15;3.72;;;;;;;;;;5045373;28;20117;-68
2023/09/02 12:17:33;;;;;;;12.57;3.55;;;;;;;;;;5040952;28;20037;-68
2023/09/02 12:19:59;;;;;;;14.40;3.67;;;;;;;;;;5046293;28;20110;-68
2023/09/02 12:22:25;;;;;;;13.32;3.38;;;;;;;;;;5038928;28;20037;-68
2023/09/02 12:24:52;;;;;;;14.38;3.55;;;;;;;;;;5037917;28;20029;-68
2023/09/02 12:27:18;;;;;;;13.63;3.75;;;;;;;;;;5042197;28;20033;-68
2023/09/02 12:29:57;;;;;;;16.20;3.65;;;;;;;;;;5034718;28;20185;-68
2023/09/02 12:32:24;;;;;;;13.15;3.75;;;;;;;;;;5039516;28;20064;-68
2023/09/02 12:34:50;;;;;;;13.40;3.78;;;;;;;;;;5038164;28;20029;-68
2023/09/02 12:37:17;;;;;;;15.57;4.78;;;;;;;;;;5042070;28;20437;-68
2023/09/02 12:39:43;;;;;;;13.90;4.28;;;;;;;;;;5030867;28;20720;-68
2023/09/02 12:42:16;;;;;;;15.80;5.70;;;;;;;;;;5037828;28;20196;-69
2023/09/02 12:44:49;;;;;;;18.92;5.53;;;;;;;;;;5038016;28;20268;-71
2023/09/02 12:47:19;;;;;;;21.38;5.15;;;;;;;;;;5041716;28;20032;-71
2023/09/02 12:49:45;;;;;;;18.02;5.60;;;;;;;;;;5033478;28;20032;-71
2023/09/02 12:52:15;;;;;;;22.65;5.60;;;;;;;;;;5045092;28;20261;-70
2023/09/02 12:54:45;;;;;;;18.77;4.97;;;;;;;;;;5038801;28;20028;-71
2023/09/02 12:57:11;;;;;;;19.60;5.13;;;;;;;;;;5044192;28;20681;-71
2023/09/02 12:59:37;;;;;;;20.70;5.45;;;;;;;;;;5032437;28;20033;-72
2023/09/02 13:02:03;;;;;;;19.70;5.43;;;;;;;;;;5035649;28;20293;-72
2023/09/02 13:04:29;;;;;;;17.63;5.22;;;;;;;;;;5038243;28;20273;-71
2023/09/02 13:06:56;;;;;;;20.67;5.40;;;;;;;;;;5041899;28;20173;-72
2023/09/02 13:09:23;;;;;;;15.25;4.70;;;;;;;;;;5041536;28;20029;-71
2023/09/02 13:11:49;;;;;;;16.67;4.93;;;;;;;;;;5037108;28;20036;-71
2023/09/02 13:14:15;;;;;;;17.25;5.18;;;;;;;;;;5042388;28;20032;-73
2023/09/02 13:16:43;;;;;;;16.42;4.95;;;;;;;;;;5038795;28;20130;-72
2023/09/02 13:19:09;;;;;;;13.23;4.60;;;;;;;;;;5038013;28;20151;-71
2023/09/02 13:21:37;;;;;;;14.98;5.30;;;;;;;;;;5040053;28;20095;-71
2023/09/02 13:24:03;;;;;;;17.60;5.25;;;;;;;;;;5041095;28;20913;-70
2023/09/02 13:26:30;;;;;;;16.27;5.45;;;;;;;;;;5038928;28;20820;-70
2023/09/02 13:28:56;;;;;;;17.88;5.25;;;;;;;;;;5041256;28;20106;-70
2023/09/02 13:31:23;;;;;;;14.18;4.85;;;;;;;;;;5043386;28;20535;-70
2023/09/02 13:33:49;;;;;;;15.93;4.90;;;;;;;;;;5040490;28;20040;-70
2023/09/02 13:36:15;;;;;;;14.52;5.20;;;;;;;;;;5029318;28;20036;-70
2023/09/02 13:38:41;;;;;;;14.55;4.45;;;;;;;;;;5028531;28;20029;-70
2023/09/02 13:41:09;;;;;;;14.15;4.43;;;;;;;;;;5032378;28;20031;-70
2023/09/02 13:43:35;;;;;;;16.58;4.85;;;;;;;;;;5029090;28;20036;-70
2023/09/02 13:46:07;;;;;;;14.88;4.63;;;;;;;;;;5031776;28;20570;-70
2023/09/02 13:48:33;;;;;;;16.63;5.25;;;;;;;;;;5030261;28;20517;-70
2023/09/02 13:51:00;;;;;;;18.98;5.45;;;;;;;;;;5034148;28;20243;-70
2023/09/02 13:53:27;;;;;;;13.93;5.45;;;;;;;;;;5034034;28;20032;-71
2023/09/02 13:55:53;;;;;;;18.60;5.38;;;;;;;;;;5037720;28;20028;-71
2023/09/02 13:58:20;;;;;;;16.33;5.25;;;;;;;;;;5042918;28;20042;-71
2023/09/02 14:00:47;;;;;;;16.58;5.40;;;;;;;;;;5039446;28;20406;-70
2023/09/02 14:03:18;;;;;;;21.73;5.30;;;;;;;;;;5037524;28;20029;-71
2023/09/02 14:05:46;;;;;;;16.02;4.95;;;;;;;;;;5035964;28;20036;-70
2023/09/02 14:08:16;;;;;;;14.45;4.65;;;;;;;;;;5041165;28;20094;-71
2023/09/02 14:10:43;;;;;;;16.73;4.45;;;;;;;;;;5040393;28;20020;-70
2023/09/02 14:13:10;;;;;;;20.38;5.07;;;;;;;;;;5044465;28;20052;-70
2023/09/02 14:15:36;;;;;;;16.80;4.88;;;;;;;;;;5042406;28;20336;-71
2023/09/02 14:18:03;;;;;;;13.98;4.68;;;;;;;;;;5038525;28;20663;-70
2023/09/02 14:20:29;;;;;;;16.10;5.22;;;;;;;;;;5036107;28;20111;-70
2023/09/02 14:22:55;;;;;;;17.67;5.05;;;;;;;;;;5043178;28;20143;-70
2023/09/02 14:25:21;;;;;;;15.57;4.75;;;;;;;;;;5045399;28;20117;-70
2023/09/02 14:27:47;;;;;;;17.63;4.80;;;;;;;;;;5036401;28;20036;-70
2023/09/02 14:30:14;;;;;;;17.58;4.93;;;;;;;;;;5040871;28;20025;-71
2023/09/02 14:32:40;;;;;;;16.60;4.97;;;;;;;;;;5042730;28;20704;-70
2023/09/02 14:35:06;;;;;;;15.27;4.38;;;;;;;;;;5043015;28;20478;-70
2023/09/02 14:37:32;;;;;;;14.70;4.78;;;;;;;;;;5040815;28;20350;-71
2023/09/02 14:39:58;;;;;;;15.18;4.55;;;;;;;;;;5041643;28;20095;-70